createdAt,value
2018-08-28T00:01:19.680Z,20.08
2018-08-28T00:02:00.466Z,20.08
2018-08-28T00:02:40.796Z,20.07
2018-08-28T00:03:21.199Z,20.08
2018-08-28T00:04:01.571Z,20.07
2018-08-28T00:05:54.650Z,19.97
2018-08-28T00:06:53.044Z,20.02
2018-08-28T00:07:47.101Z,20.07
2018-08-28T00:08:40.306Z,20.12
2018-08-28T00:09:33.379Z,20.08
2018-08-28T00:10:26.668Z,20.08
2018-08-28T00:11:19.434Z,20.04
2018-08-28T00:12:13.874Z,20.04
2018-08-28T00:13:18.293Z,20.02
2018-08-28T00:14:12.527Z,20.05
2018-08-28T00:15:05.053Z,20.01
2018-08-28T00:16:06.312Z,20.02
2018-08-28T00:16:59.272Z,20.05
2018-08-28T00:17:51.557Z,19.97
2018-08-28T00:18:48.840Z,19.97
2018-08-28T00:19:44.047Z,20
2018-08-28T00:20:36.704Z,20.05
2018-08-28T00:21:29.520Z,19.98
2018-08-28T00:22:24.118Z,20.02
2018-08-28T00:23:17.995Z,20.12
2018-08-28T00:24:12.870Z,20.07
2018-08-28T00:25:05.499Z,20.08
2018-08-28T00:25:57.607Z,20.04
2018-08-28T00:26:52.587Z,20.05
2018-08-28T00:27:46.377Z,20.05
2018-08-28T00:28:39.601Z,20.1
2018-08-28T00:29:33.728Z,20.04
2018-08-28T00:30:29.251Z,20.05
2018-08-28T00:32:54.550Z,20
2018-08-28T00:33:34.439Z,20
2018-08-28T00:34:14.842Z,20.07
2018-08-28T00:34:55.189Z,20.04
2018-08-28T00:35:35.609Z,20.1
2018-08-28T00:36:16.044Z,19.95
2018-08-28T00:36:56.505Z,20.01
2018-08-28T00:37:36.913Z,20.04
2018-08-28T00:38:17.320Z,20.04
2018-08-28T00:38:57.676Z,20.07
2018-08-28T00:39:38.281Z,19.97
2018-08-28T00:40:18.678Z,19.92
2018-08-28T00:40:59.213Z,20.07
2018-08-28T00:41:39.651Z,19.98
2018-08-28T00:42:20.117Z,20.01
2018-08-28T00:43:00.509Z,20.04
2018-08-28T00:43:40.927Z,19.95
2018-08-28T00:44:21.267Z,19.97
2018-08-28T00:45:01.757Z,19.97
2018-08-28T00:45:42.186Z,19.94
2018-08-28T00:46:22.777Z,20.04
2018-08-28T00:47:03.142Z,19.94
2018-08-28T00:47:43.553Z,19.97
2018-08-28T00:48:23.958Z,20.04
2018-08-28T00:49:04.302Z,19.95
2018-08-28T00:49:44.719Z,19.98
2018-08-28T00:50:25.149Z,19.89
2018-08-28T00:51:05.623Z,20.02
2018-08-28T00:51:45.952Z,19.86
2018-08-28T00:52:26.532Z,19.89
2018-08-28T00:53:06.771Z,19.92
2018-08-28T00:53:47.180Z,19.86
2018-08-28T00:54:27.564Z,19.89
2018-08-28T00:55:07.929Z,19.9
2018-08-28T00:55:48.454Z,19.92
2018-08-28T00:56:28.781Z,19.86
2018-08-28T00:57:09.248Z,19.89
2018-08-28T00:57:49.576Z,19.89
2018-08-28T00:58:30.044Z,19.8
2018-08-28T00:59:10.474Z,19.8
2018-08-28T00:59:50.841Z,19.83
2018-08-28T01:00:31.294Z,19.78
2018-08-28T01:01:11.669Z,19.8
2018-08-28T01:04:11.046Z,19.79
2018-08-28T01:04:51.585Z,19.7
2018-08-28T01:05:31.801Z,19.68
2018-08-28T01:06:12.243Z,19.68
2018-08-28T01:06:52.611Z,19.72
2018-08-28T01:07:33.074Z,19.62
2018-08-28T01:08:13.532Z,19.75
2018-08-28T01:11:11.747Z,19.57
2018-08-28T01:12:53.696Z,19.53
2018-08-28T01:13:46.751Z,19.61
2018-08-28T01:14:48.714Z,19.47
2018-08-28T01:17:09.406Z,19.4
2018-08-28T01:18:02.914Z,19.4
2018-08-28T01:19:03.069Z,19.28
2018-08-28T01:19:55.392Z,19.27
2018-08-28T01:20:47.463Z,19.23
2018-08-28T01:21:40.003Z,19.2
2018-08-28T01:22:33.012Z,19.21
2018-08-28T01:23:25.334Z,19.09
2018-08-28T01:24:17.943Z,19.12
2018-08-28T01:25:10.436Z,19.09
2018-08-28T01:26:02.927Z,19.1
2018-08-28T01:26:55.907Z,19.05
2018-08-28T01:27:49.069Z,19.01
2018-08-28T01:28:42.652Z,19.01
2018-08-28T01:29:34.710Z,18.93
2018-08-28T01:30:26.817Z,18.94
2018-08-28T01:31:18.746Z,19.05
2018-08-28T01:32:11.586Z,18.93
2018-08-28T01:33:04.104Z,18.93
2018-08-28T01:33:56.199Z,18.9
2018-08-28T01:35:02.097Z,18.79
2018-08-28T01:35:55.627Z,18.82
2018-08-28T01:36:48.927Z,18.86
2018-08-28T01:37:57.212Z,18.79
2018-08-28T01:38:51.529Z,18.82
2018-08-28T01:39:44.038Z,18.82
2018-08-28T01:40:36.383Z,18.68
2018-08-28T01:41:29.042Z,18.66
2018-08-28T01:42:21.260Z,18.72
2018-08-28T01:43:13.922Z,18.71
2018-08-28T01:44:06.339Z,18.66
2018-08-28T01:44:58.363Z,18.6
2018-08-28T01:45:50.355Z,18.57
2018-08-28T01:46:42.962Z,18.56
2018-08-28T01:47:35.046Z,18.5
2018-08-28T01:48:27.550Z,18.5
2018-08-28T01:49:19.743Z,18.53
2018-08-28T01:50:12.058Z,18.49
2018-08-28T01:51:04.229Z,18.41
2018-08-28T01:51:56.952Z,18.49
2018-08-28T01:52:49.134Z,18.35
2018-08-28T01:53:41.421Z,18.35
2018-08-28T01:54:33.928Z,18.31
2018-08-28T01:55:18.422Z,18.29
2018-08-28T01:55:58.919Z,18.31
2018-08-28T01:56:39.489Z,18.16
2018-08-28T01:57:19.931Z,18.19
2018-08-28T01:58:00.343Z,18.2
2018-08-28T01:58:40.845Z,18.19
2018-08-28T01:59:21.227Z,18.2
2018-08-28T02:00:01.682Z,18.13
2018-08-28T02:00:42.178Z,18.04
2018-08-28T02:01:22.649Z,17.98
2018-08-28T02:02:03.155Z,18.05
2018-08-28T02:02:43.728Z,18.01
2018-08-28T02:03:24.381Z,18.01
2018-08-28T02:04:04.672Z,17.98
2018-08-28T02:04:45.185Z,17.87
2018-08-28T02:05:25.591Z,17.89
2018-08-28T02:06:06.140Z,17.84
2018-08-28T02:06:46.630Z,17.84
2018-08-28T02:07:27.095Z,17.87
2018-08-28T02:08:07.607Z,17.79
2018-08-28T02:08:47.976Z,17.8
2018-08-28T02:09:28.489Z,17.87
2018-08-28T02:10:08.865Z,17.86
2018-08-28T02:10:49.243Z,17.84
2018-08-28T02:11:29.666Z,17.84
2018-08-28T02:12:10.095Z,17.8
2018-08-28T02:12:50.598Z,17.77
2018-08-28T02:13:31.163Z,17.86
2018-08-28T02:14:11.545Z,17.86
2018-08-28T02:14:51.965Z,17.84
2018-08-28T02:15:32.430Z,17.76
2018-08-28T02:16:12.802Z,17.77
2018-08-28T02:16:53.452Z,17.81
2018-08-28T02:17:33.890Z,17.71
2018-08-28T02:18:14.351Z,17.74
2018-08-28T02:18:54.786Z,17.65
2018-08-28T02:19:35.252Z,17.73
2018-08-28T02:20:15.553Z,17.58
2018-08-28T02:20:56.080Z,17.54
2018-08-28T02:21:36.448Z,17.62
2018-08-28T02:22:16.896Z,17.54
2018-08-28T02:22:57.341Z,17.54
2018-08-28T02:23:37.779Z,17.46
2018-08-28T02:24:18.041Z,17.45
2018-08-28T02:24:58.757Z,17.42
2018-08-28T02:25:39.179Z,17.39
2018-08-28T02:26:19.759Z,17.39
2018-08-28T02:27:00.069Z,17.42
2018-08-28T02:27:40.687Z,17.4
2018-08-28T02:28:21.004Z,17.42
2018-08-28T02:29:01.804Z,17.38
2018-08-28T02:29:42.076Z,17.4
2018-08-28T02:30:22.613Z,17.3
2018-08-28T02:31:03.219Z,17.35
2018-08-28T02:31:44.246Z,17.32
2018-08-28T02:32:24.566Z,17.39
2018-08-28T02:33:04.990Z,17.35
2018-08-28T02:33:45.430Z,17.27
2018-08-28T02:34:25.847Z,17.22
2018-08-28T02:35:06.315Z,17.18
2018-08-28T02:35:46.768Z,17.14
2018-08-28T02:36:27.155Z,17.15
2018-08-28T02:37:07.678Z,17.09
2018-08-28T02:37:48.293Z,17.2
2018-08-28T02:38:28.462Z,17.15
2018-08-28T02:39:08.876Z,17.09
2018-08-28T02:39:49.294Z,17
2018-08-28T02:40:29.679Z,16.92
2018-08-28T02:41:10.072Z,17.06
2018-08-28T02:41:50.489Z,16.95
2018-08-28T02:42:30.959Z,16.95
2018-08-28T02:43:11.373Z,16.91
2018-08-28T02:43:51.792Z,16.88
2018-08-28T02:44:32.098Z,16.9
2018-08-28T02:45:12.552Z,16.92
2018-08-28T02:45:52.970Z,16.91
2018-08-28T02:46:33.301Z,16.95
2018-08-28T02:47:13.724Z,16.88
2018-08-28T02:47:54.166Z,16.88
2018-08-28T02:48:34.580Z,16.9
2018-08-28T02:49:14.943Z,16.9
2018-08-28T02:49:55.360Z,16.92
2018-08-28T02:50:35.729Z,16.99
2018-08-28T02:51:16.106Z,16.95
2018-08-28T02:51:56.559Z,16.96
2018-08-28T02:52:36.897Z,16.96
2018-08-28T02:53:17.377Z,17
2018-08-28T02:53:57.803Z,16.92
2018-08-28T02:54:38.176Z,16.92
2018-08-28T02:55:18.571Z,16.92
2018-08-28T02:55:58.999Z,16.91
2018-08-28T02:56:39.364Z,16.88
2018-08-28T02:57:19.792Z,16.88
2018-08-28T02:58:00.197Z,16.8
2018-08-28T02:58:40.581Z,16.84
2018-08-28T02:59:21.005Z,16.82
2018-08-28T03:00:01.417Z,16.8
2018-08-28T03:00:41.762Z,16.8
2018-08-28T03:01:22.178Z,16.77
2018-08-28T03:02:02.588Z,16.75
2018-08-28T03:02:42.988Z,16.72
2018-08-28T03:03:23.341Z,16.75
2018-08-28T03:04:03.732Z,16.73
2018-08-28T03:04:44.120Z,16.72
2018-08-28T03:05:24.580Z,16.63
2018-08-28T03:06:04.965Z,16.66
2018-08-28T03:06:45.340Z,16.62
2018-08-28T03:07:25.774Z,16.65
2018-08-28T03:08:06.183Z,16.6
2018-08-28T03:08:46.554Z,16.52
2018-08-28T03:09:26.979Z,16.55
2018-08-28T03:10:07.395Z,16.44
2018-08-28T03:10:47.785Z,16.51
2018-08-28T03:11:28.261Z,16.47
2018-08-28T03:12:08.601Z,16.52
2018-08-28T03:12:49.020Z,16.52
2018-08-28T03:13:29.417Z,16.5
2018-08-28T03:14:09.806Z,16.5
2018-08-28T03:14:50.157Z,16.5
2018-08-28T03:15:30.673Z,16.45
2018-08-28T03:16:11.111Z,16.44
2018-08-28T03:16:51.445Z,16.48
2018-08-28T03:17:31.847Z,16.41
2018-08-28T03:18:12.293Z,16.33
2018-08-28T03:18:52.580Z,16.36
2018-08-28T03:19:33.098Z,16.36
2018-08-28T03:20:13.496Z,16.4
2018-08-28T03:20:53.896Z,16.41
2018-08-28T03:21:34.247Z,16.34
2018-08-28T03:22:14.711Z,16.4
2018-08-28T03:22:55.069Z,16.34
2018-08-28T03:23:35.486Z,16.48
2018-08-28T03:24:15.882Z,16.44
2018-08-28T03:24:56.306Z,16.5
2018-08-28T03:25:36.721Z,16.5
2018-08-28T03:26:17.091Z,16.48
2018-08-28T03:26:57.512Z,16.57
2018-08-28T03:27:37.949Z,16.54
2018-08-28T03:28:18.347Z,16.57
2018-08-28T03:28:58.795Z,16.63
2018-08-28T03:29:39.137Z,16.6
2018-08-28T03:30:19.555Z,16.63
2018-08-28T03:30:59.944Z,16.66
2018-08-28T03:31:40.351Z,16.67
2018-08-28T03:32:20.728Z,16.73
2018-08-28T03:33:01.159Z,16.63
2018-08-28T03:33:41.555Z,16.54
2018-08-28T03:34:21.914Z,16.51
2018-08-28T03:35:02.353Z,16.47
2018-08-28T03:35:42.762Z,16.51
2018-08-28T03:36:23.158Z,16.47
2018-08-28T03:37:03.530Z,16.3
2018-08-28T03:37:43.874Z,16.32
2018-08-28T03:38:24.358Z,16.26
2018-08-28T03:39:04.754Z,16.25
2018-08-28T03:39:45.151Z,16.16
2018-08-28T03:40:25.569Z,16.14
2018-08-28T03:41:05.997Z,16.08
2018-08-28T03:41:46.408Z,16.08
2018-08-28T03:42:26.803Z,16.04
2018-08-28T03:43:07.191Z,16.06
2018-08-28T03:43:47.599Z,16.04
2018-08-28T03:44:27.964Z,16.03
2018-08-28T03:45:08.447Z,16.01
2018-08-28T03:45:48.862Z,16.01
2018-08-28T03:46:29.274Z,15.92
2018-08-28T03:47:09.636Z,15.93
2018-08-28T03:47:49.978Z,15.99
2018-08-28T03:48:30.445Z,15.95
2018-08-28T03:49:10.808Z,15.84
2018-08-28T03:49:51.124Z,15.89
2018-08-28T03:50:31.572Z,15.88
2018-08-28T03:51:11.974Z,15.84
2018-08-28T03:51:52.362Z,15.84
2018-08-28T03:52:32.759Z,15.86
2018-08-28T03:53:13.172Z,15.81
2018-08-28T03:53:53.623Z,15.78
2018-08-28T03:54:34.064Z,15.88
2018-08-28T03:55:14.484Z,15.77
2018-08-28T03:55:54.896Z,15.76
2018-08-28T03:56:35.313Z,15.8
2018-08-28T03:57:15.806Z,15.77
2018-08-28T03:57:56.178Z,15.74
2018-08-28T03:58:36.559Z,15.73
2018-08-28T03:59:16.980Z,15.7
2018-08-28T03:59:57.335Z,15.68
2018-08-28T04:00:37.721Z,15.67
2018-08-28T04:01:18.148Z,15.74
2018-08-28T04:01:58.513Z,15.66
2018-08-28T04:02:38.876Z,15.66
2018-08-28T04:03:19.328Z,15.66
2018-08-28T04:03:59.733Z,15.67
2018-08-28T04:04:41.091Z,15.59
2018-08-28T04:05:21.399Z,15.62
2018-08-28T04:06:01.810Z,15.62
2018-08-28T04:06:42.215Z,15.66
2018-08-28T04:07:22.692Z,15.51
2018-08-28T04:08:03.058Z,15.53
2018-08-28T04:08:43.507Z,15.51
2018-08-28T04:09:23.873Z,15.53
2018-08-28T04:10:04.373Z,15.53
2018-08-28T04:10:44.752Z,15.52
2018-08-28T04:11:25.192Z,15.48
2018-08-28T04:12:05.504Z,15.4
2018-08-28T04:12:46.045Z,15.49
2018-08-28T04:13:26.364Z,15.52
2018-08-28T04:14:06.719Z,15.38
2018-08-28T04:14:47.139Z,15.44
2018-08-28T04:15:27.583Z,15.41
2018-08-28T04:16:08.064Z,15.41
2018-08-28T04:16:48.374Z,15.41
2018-08-28T04:17:28.727Z,15.41
2018-08-28T04:18:09.192Z,15.4
2018-08-28T04:18:49.640Z,15.44
2018-08-28T04:19:30.050Z,15.48
2018-08-28T04:20:10.405Z,15.41
2018-08-28T04:20:50.774Z,15.34
2018-08-28T04:21:31.211Z,15.38
2018-08-28T04:22:11.674Z,15.33
2018-08-28T04:22:52.066Z,15.38
2018-08-28T04:23:32.514Z,15.34
2018-08-28T04:24:12.898Z,15.34
2018-08-28T04:24:53.356Z,15.35
2018-08-28T04:25:33.737Z,15.41
2018-08-28T04:26:14.106Z,15.4
2018-08-28T04:26:54.489Z,15.35
2018-08-28T05:06:32.901Z,14.17
2018-08-28T05:07:25.341Z,14.27
2018-08-28T05:08:17.988Z,14.36
2018-08-28T05:09:10.389Z,14.31
2018-08-28T05:10:03.259Z,14.45
2018-08-28T05:10:55.549Z,14.48
2018-08-28T05:11:47.765Z,14.63
2018-08-28T05:13:42.967Z,14.71
2018-08-28T05:14:35.029Z,14.91
2018-08-28T05:15:26.903Z,15
2018-08-28T05:16:19.244Z,15.12
2018-08-28T05:17:11.170Z,15.23
2018-08-28T05:18:03.656Z,15.27
2018-08-28T05:18:52.693Z,15.41
2018-08-28T05:19:33.014Z,15.48
2018-08-28T05:20:13.507Z,15.64
2018-08-28T05:20:53.915Z,15.85
2018-08-28T05:21:34.693Z,15.91
2018-08-28T05:22:15.103Z,16.04
2018-08-28T05:22:55.777Z,16.18
2018-08-28T05:23:36.335Z,16.34
2018-08-28T05:24:16.813Z,16.44
2018-08-28T05:24:57.211Z,16.59
2018-08-28T05:25:37.622Z,16.6
2018-08-28T05:26:18.021Z,16.77
2018-08-28T05:26:58.419Z,16.91
2018-08-28T05:27:38.811Z,17.03
2018-08-28T05:28:19.329Z,17.18
2018-08-28T05:28:59.708Z,17.28
2018-08-28T05:29:40.251Z,17.33
2018-08-28T05:30:20.582Z,17.33
2018-08-28T05:31:00.974Z,17.39
2018-08-28T05:31:41.332Z,17.55
2018-08-28T05:32:21.740Z,17.62
2018-08-28T05:33:02.139Z,17.76
2018-08-28T05:33:42.721Z,17.83
2018-08-28T05:34:23.043Z,17.92
2018-08-28T05:35:03.665Z,18.09
2018-08-28T05:35:44.208Z,18.19
2018-08-28T05:36:24.748Z,18.19
2018-08-28T05:37:05.265Z,18.25
2018-08-28T05:37:45.864Z,18.34
2018-08-28T05:38:26.246Z,18.5
2018-08-28T05:39:06.712Z,18.5
2018-08-28T05:39:47.107Z,18.68
2018-08-28T05:40:27.980Z,18.71
2018-08-28T05:41:08.191Z,18.86
2018-08-28T05:41:48.757Z,18.78
2018-08-28T05:42:29.223Z,18.9
2018-08-28T05:43:09.769Z,19.05
2018-08-28T05:43:50.290Z,19.07
2018-08-28T05:44:30.706Z,19.27
2018-08-28T05:45:11.088Z,19.32
2018-08-28T05:45:51.483Z,19.38
2018-08-28T05:46:31.987Z,19.65
2018-08-28T05:47:12.339Z,19.6
2018-08-28T05:47:52.745Z,19.7
2018-08-28T05:48:33.279Z,19.85
2018-08-28T05:49:13.661Z,19.8
2018-08-28T05:49:54.420Z,19.98
2018-08-28T05:50:34.909Z,19.98
2018-08-28T05:51:15.387Z,20.1
2018-08-28T05:51:55.738Z,20.19
2018-08-28T05:52:36.277Z,20.27
2018-08-28T05:53:16.844Z,20.26
2018-08-28T05:53:57.861Z,20.44
2018-08-28T05:54:37.535Z,20.56
2018-08-28T05:55:17.976Z,20.61
2018-08-28T05:55:58.450Z,20.69
2018-08-28T05:56:38.883Z,20.81
2018-08-28T05:57:19.240Z,20.85
2018-08-28T05:58:00.493Z,20.94
2018-08-28T06:00:27.297Z,21.24
2018-08-28T06:01:23.005Z,21.22
2018-08-28T06:02:04.190Z,21.28
2018-08-28T06:02:44.409Z,21.4
2018-08-28T06:03:25.569Z,21.48
2018-08-28T06:04:06.028Z,21.46
2018-08-28T06:04:47.676Z,21.61
2018-08-28T06:05:28.180Z,21.59
2018-08-28T06:06:08.670Z,21.61
2018-08-28T06:06:49.158Z,21.77
2018-08-28T06:07:30.692Z,21.73
2018-08-28T06:08:10.945Z,21.83
2018-08-28T06:08:52.227Z,21.89
2018-08-28T06:09:33.173Z,21.94
2018-08-28T06:10:14.218Z,21.94
2018-08-28T06:10:54.956Z,22.09
2018-08-28T06:11:36.172Z,22.23
2018-08-28T06:12:17.895Z,22.3
2018-08-28T06:12:58.618Z,22.2
2018-08-28T06:13:41.190Z,22.38
2018-08-28T06:14:21.837Z,22.39
2018-08-28T06:15:05.563Z,22.54
2018-08-28T06:15:46.763Z,22.66
2018-08-28T06:16:27.603Z,22.75
2018-08-28T06:17:08.697Z,22.82
2018-08-28T06:17:49.798Z,22.89
2018-08-28T06:18:30.361Z,22.93
2018-08-28T06:19:11.070Z,22.97
2018-08-28T06:19:52.771Z,23.07
2018-08-28T06:20:33.714Z,23.09
2018-08-28T06:21:14.323Z,23.11
2018-08-28T06:21:55.648Z,23.22
2018-08-28T06:22:36.665Z,23.34
2018-08-28T06:23:18.369Z,23.38
2018-08-28T06:23:58.905Z,23.42
2018-08-28T06:24:40.071Z,23.42
2018-08-28T06:25:20.737Z,23.41
2018-08-28T06:26:01.755Z,23.45
2018-08-28T06:26:42.800Z,23.47
2018-08-28T06:27:25.854Z,23.62
2018-08-28T06:28:06.855Z,23.74
2018-08-28T06:28:50.264Z,23.77
2018-08-28T06:29:41.799Z,23.71
2018-08-28T06:30:26.532Z,23.82
2018-08-28T06:31:08.481Z,23.9
2018-08-28T06:31:49.529Z,23.89
2018-08-28T06:32:31.880Z,23.96
2018-08-28T06:33:13.498Z,24.04
2018-08-28T06:33:54.750Z,24.16
2018-08-28T06:34:35.316Z,24.12
2018-08-28T06:35:17.405Z,24.21
2018-08-28T06:37:00.635Z,24.33
2018-08-28T06:37:55.397Z,24.36
2018-08-28T06:38:52.430Z,24.39
2018-08-28T06:39:49.749Z,24.53
2018-08-28T06:40:44.874Z,24.56
2018-08-28T06:41:40.403Z,24.66
2018-08-28T06:42:39.967Z,24.79
2018-08-28T06:43:37.659Z,24.89
2018-08-28T06:44:31.332Z,24.94
2018-08-28T06:45:26.261Z,24.98
2018-08-28T06:46:20.744Z,25.05
2018-08-28T06:47:15.814Z,25.22
2018-08-28T06:48:11.821Z,25.26
2018-08-28T06:50:46.655Z,25.44
2018-08-28T06:51:41.785Z,25.36
2018-08-28T06:52:33.600Z,25.48
2018-08-28T06:53:27.006Z,25.44
2018-08-28T06:54:19.707Z,25.36
2018-08-28T06:55:14.519Z,25.38
2018-08-28T06:56:10.084Z,25.39
2018-08-28T06:57:04.764Z,25.44
2018-08-28T06:58:02.852Z,25.41
2018-08-28T06:58:55.895Z,25.48
2018-08-28T06:59:40.869Z,25.44
2018-08-28T07:00:26.079Z,25.48
2018-08-28T07:01:08.047Z,25.59
2018-08-28T07:01:49.560Z,25.66
2018-08-28T07:02:30.193Z,25.72
2018-08-28T07:03:10.506Z,25.82
2018-08-28T07:03:50.924Z,25.82
2018-08-28T07:04:31.297Z,25.82
2018-08-28T07:05:11.716Z,25.72
2018-08-28T07:05:52.175Z,25.67
2018-08-28T07:06:32.599Z,25.75
2018-08-28T07:07:13.002Z,25.71
2018-08-28T07:07:53.452Z,25.85
2018-08-28T07:08:34.187Z,25.9
2018-08-28T07:09:14.976Z,25.89
2018-08-28T07:09:55.275Z,25.94
2018-08-28T07:10:35.674Z,25.94
2018-08-28T07:11:16.371Z,26.01
2018-08-28T07:11:56.742Z,25.98
2018-08-28T07:12:37.330Z,26.09
2018-08-28T07:13:17.730Z,25.97
2018-08-28T07:13:58.129Z,25.97
2018-08-28T07:14:38.591Z,25.94
2018-08-28T07:15:18.960Z,25.83
2018-08-28T07:15:59.392Z,25.86
2018-08-28T07:16:39.759Z,25.97
2018-08-28T07:17:20.204Z,25.97
2018-08-28T07:18:00.770Z,26.04
2018-08-28T07:18:41.363Z,26.13
2018-08-28T07:19:21.757Z,26.13
2018-08-28T07:20:04.094Z,26.21
2018-08-28T07:20:45.058Z,26.21
2018-08-28T07:21:25.856Z,26.2
2018-08-28T07:22:06.667Z,26.2
2018-08-28T07:22:47.006Z,26.29
2018-08-28T07:23:27.749Z,26.35
2018-08-28T07:24:09.578Z,26.47
2018-08-28T07:24:53.198Z,26.64
2018-08-28T07:25:36.184Z,26.65
2018-08-28T07:26:18.095Z,26.66
2018-08-28T07:27:00.646Z,26.69
2018-08-28T07:27:43.172Z,26.79
2018-08-28T07:28:24.177Z,27.02
2018-08-28T07:29:04.317Z,27.08
2018-08-28T07:29:44.844Z,27.11
2018-08-28T07:30:25.532Z,27.13
2018-08-28T07:31:06.264Z,27.28
2018-08-28T07:31:46.970Z,27.42
2018-08-28T07:32:27.355Z,27.58
2018-08-28T07:33:07.897Z,27.63
2018-08-28T07:33:48.578Z,27.69
2018-08-28T07:34:28.902Z,27.8
2018-08-28T07:35:09.547Z,27.83
2018-08-28T07:35:49.940Z,27.93
2018-08-28T07:36:30.466Z,27.93
2018-08-28T07:37:11.500Z,27.91
2018-08-28T07:37:52.778Z,27.9
2018-08-28T07:38:33.969Z,27.96
2018-08-28T07:39:14.393Z,27.98
2018-08-28T07:39:54.917Z,28.02
2018-08-28T07:40:36.691Z,28.03
2018-08-28T07:41:18.915Z,28.06
2018-08-28T07:41:58.613Z,28.09
2018-08-28T07:43:22.020Z,28.11
2018-08-28T07:44:03.126Z,28.05
2018-08-28T07:44:46.828Z,28.01
2018-08-28T07:45:28.217Z,27.95
2018-08-28T07:46:09.054Z,28.06
2018-08-28T07:46:54.186Z,28.11
2018-08-28T07:47:35.278Z,28.17
2018-08-28T07:48:18.716Z,28.18
2018-08-28T07:48:59.020Z,28.36
2018-08-28T07:49:40.010Z,28.3
2018-08-28T07:50:20.544Z,28.4
2018-08-28T07:51:03.136Z,28.39
2018-08-28T07:51:45.590Z,28.33
2018-08-28T07:52:38.320Z,28.24
2018-08-28T07:53:21.499Z,28.11
2018-08-28T07:54:03.373Z,27.88
2018-08-28T07:54:47.419Z,27.95
2018-08-28T07:58:09.101Z,27.72
2018-08-28T07:58:49.214Z,27.8
2018-08-28T07:59:29.540Z,27.88
2018-08-28T08:00:10.045Z,27.77
2018-08-28T08:00:50.475Z,27.81
2018-08-28T08:01:30.962Z,27.87
2018-08-28T08:02:11.289Z,27.93
2018-08-28T08:02:51.696Z,27.98
2018-08-28T08:03:32.278Z,27.83
2018-08-28T08:04:13.912Z,27.8
2018-08-28T08:04:55.463Z,27.84
2018-08-28T08:05:35.422Z,27.65
2018-08-28T08:06:15.909Z,27.59
2018-08-28T08:06:56.395Z,27.49
2018-08-28T08:07:36.860Z,27.58
2018-08-28T08:08:17.313Z,27.65
2018-08-28T08:08:58.048Z,27.77
2018-08-28T08:09:38.320Z,27.77
2018-08-28T08:10:18.844Z,27.83
2018-08-28T08:11:00.915Z,27.83
2018-08-28T08:11:40.901Z,27.68
2018-08-28T08:12:22.253Z,27.72
2018-08-28T08:13:02.824Z,27.77
2018-08-28T08:13:43.241Z,27.78
2018-08-28T08:14:23.635Z,27.86
2018-08-28T08:15:04.118Z,27.87
2018-08-28T08:15:44.547Z,28.02
2018-08-28T08:16:25.169Z,28.21
2018-08-28T08:17:10.095Z,28.28
2018-08-28T08:17:50.611Z,28.33
2018-08-28T08:18:30.935Z,28.43
2018-08-28T08:19:11.359Z,28.38
2018-08-28T08:19:51.801Z,28.28
2018-08-28T08:20:32.242Z,28.18
2018-08-28T08:21:12.723Z,28.08
2018-08-28T08:21:53.110Z,28.09
2018-08-28T08:22:34.365Z,28.05
2018-08-28T08:23:13.866Z,28.18
2018-08-28T08:23:54.402Z,28.21
2018-08-28T08:24:34.751Z,28.18
2018-08-28T08:25:15.197Z,28.2
2018-08-28T08:25:55.668Z,28.32
2018-08-28T08:26:36.056Z,28.43
2018-08-28T08:27:16.470Z,28.65
2018-08-28T08:27:56.901Z,28.6
2018-08-28T08:28:37.248Z,28.5
2018-08-28T08:29:17.670Z,28.58
2018-08-28T08:29:58.164Z,28.61
2018-08-28T08:30:40.443Z,28.73
2018-08-28T08:31:22.666Z,28.67
2018-08-28T08:32:03.089Z,28.69
2018-08-28T08:32:43.546Z,28.74
2018-08-28T08:33:23.910Z,28.72
2018-08-28T08:34:04.365Z,28.67
2018-08-28T08:34:44.793Z,28.82
2018-08-28T08:35:25.313Z,28.87
2018-08-28T08:36:05.713Z,28.97
2018-08-28T08:36:46.613Z,29.02
2018-08-28T08:37:27.011Z,29.14
2018-08-28T08:38:07.451Z,29.2
2018-08-28T08:38:47.949Z,29.1
2018-08-28T08:39:28.419Z,29.05
2018-08-28T08:40:08.931Z,28.97
2018-08-28T08:40:49.265Z,28.85
2018-08-28T08:41:29.750Z,28.54
2018-08-28T08:42:10.300Z,28.2
2018-08-28T08:42:51.430Z,28.11
2018-08-28T08:43:31.995Z,27.95
2018-08-28T08:44:12.417Z,27.87
2018-08-28T08:44:53.369Z,27.86
2018-08-28T08:45:33.807Z,27.87
2018-08-28T08:46:14.244Z,27.76
2018-08-28T08:46:54.734Z,27.84
2018-08-28T08:47:35.211Z,27.72
2018-08-28T08:48:15.700Z,27.72
2018-08-28T08:48:56.138Z,27.84
2018-08-28T08:49:36.556Z,27.84
2018-08-28T08:50:17.094Z,27.87
2018-08-28T08:50:57.492Z,27.71
2018-08-28T08:51:37.915Z,27.63
2018-08-28T08:52:18.762Z,27.48
2018-08-28T08:52:59.137Z,27.18
2018-08-28T08:53:39.920Z,27.18
2018-08-28T08:54:20.259Z,27.09
2018-08-28T08:55:00.788Z,27.09
2018-08-28T08:55:41.095Z,27.06
2018-08-28T08:56:21.677Z,27.02
2018-08-28T08:58:36.672Z,26.5
2018-08-28T08:59:30.239Z,26.36
2018-08-28T09:00:22.673Z,26.2
2018-08-28T09:01:18.594Z,26.19
2018-08-28T09:02:14.720Z,26
2018-08-28T09:03:15.305Z,25.74
2018-08-28T09:04:13.368Z,25.74
2018-08-28T09:05:00.130Z,25.76
2018-08-28T09:05:40.658Z,25.67
2018-08-28T09:06:21.145Z,25.69
2018-08-28T09:07:02.177Z,25.41
2018-08-28T09:07:42.716Z,25.23
2018-08-28T09:08:23.267Z,25.07
2018-08-28T09:09:04.611Z,24.82
2018-08-28T09:09:45.032Z,24.56
2018-08-28T09:10:25.498Z,24.45
2018-08-28T09:11:05.909Z,24.37
2018-08-28T09:11:46.361Z,24.19
2018-08-28T09:12:26.765Z,24.15
2018-08-28T09:13:07.427Z,24.14
2018-08-28T09:13:47.835Z,24.16
2018-08-28T09:14:28.334Z,24.19
2018-08-28T09:15:08.727Z,24.23
2018-08-28T09:15:50.226Z,24.33
2018-08-28T09:16:30.943Z,24.39
2018-08-28T09:17:11.419Z,24.48
2018-08-28T09:17:52.664Z,24.39
2018-08-28T09:18:32.388Z,24.27
2018-08-28T09:19:13.350Z,24.26
2018-08-28T09:19:53.856Z,24.29
2018-08-28T09:20:34.178Z,24.31
2018-08-28T09:21:14.595Z,24.42
2018-08-28T09:21:55.010Z,24.36
2018-08-28T09:22:36.122Z,24.41
2018-08-28T09:23:16.744Z,24.44
2018-08-28T09:23:57.578Z,24.3
2018-08-28T09:24:38.040Z,24.26
2018-08-28T09:25:18.344Z,24.16
2018-08-28T09:25:58.771Z,24.06
2018-08-28T09:26:39.418Z,24.12
2018-08-28T09:27:19.915Z,23.9
2018-08-28T09:28:00.302Z,23.87
2018-08-28T09:28:40.708Z,23.84
2018-08-28T09:29:21.129Z,23.75
2018-08-28T09:30:01.647Z,23.72
2018-08-28T09:30:42.044Z,23.79
2018-08-28T09:31:22.605Z,23.84
2018-08-28T09:32:08.125Z,23.82
2018-08-28T09:32:48.507Z,23.87
2018-08-28T09:33:28.905Z,23.89
2018-08-28T09:34:09.316Z,24.11
2018-08-28T09:34:49.976Z,24.19
2018-08-28T09:35:31.566Z,24.14
2018-08-28T09:36:11.614Z,24.33
2018-08-28T09:36:52.346Z,24.36
2018-08-28T09:37:32.895Z,24.53
2018-08-28T09:38:21.933Z,24.52
2018-08-28T09:39:02.902Z,24.56
2018-08-28T09:39:44.883Z,24.61
2018-08-28T09:40:28.098Z,24.53
2018-08-28T09:41:08.536Z,24.42
2018-08-28T09:41:48.932Z,24.33
2018-08-28T09:42:29.371Z,24.24
2018-08-28T09:43:09.775Z,24.16
2018-08-28T09:44:00.009Z,24.08
2018-08-28T09:44:41.280Z,23.97
2018-08-28T09:46:51.998Z,23.81
2018-08-28T09:47:45.185Z,23.79
2018-08-28T09:48:41.757Z,23.79
2018-08-28T09:49:39.184Z,23.82
2018-08-28T09:50:35.891Z,23.81
2018-08-28T09:51:31.131Z,23.79
2018-08-28T09:52:19.202Z,23.9
2018-08-28T09:53:00.873Z,23.86
2018-08-28T09:53:42.078Z,23.92
2018-08-28T09:54:22.590Z,24.08
2018-08-28T09:55:04.249Z,23.96
2018-08-28T09:55:46.029Z,23.86
2018-08-28T09:56:44.761Z,23.99
2018-08-28T09:57:28.743Z,23.96
2018-08-28T09:58:11.655Z,24.12
2018-08-28T09:58:52.717Z,24.05
2018-08-28T09:59:33.016Z,24.06
2018-08-28T10:00:14.760Z,23.96
2018-08-28T10:00:54.636Z,23.93
2018-08-28T10:01:35.596Z,23.97
2018-08-28T10:02:17.427Z,24.04
2018-08-28T10:02:57.446Z,24.09
2018-08-28T10:03:38.257Z,24.14
2018-08-28T10:04:18.700Z,24.06
2018-08-28T10:04:59.480Z,24.08
2018-08-28T10:05:40.141Z,24.08
2018-08-28T10:06:20.808Z,24.18
2018-08-28T10:07:01.597Z,24.16
2018-08-28T10:07:42.135Z,24.31
2018-08-28T10:08:23.953Z,24.42
2018-08-28T10:09:11.750Z,24.59
2018-08-28T10:09:55.128Z,24.71
2018-08-28T10:12:37.570Z,25.05
2018-08-28T10:13:31.585Z,25.17
2018-08-28T10:14:26.783Z,25.35
2018-08-28T10:17:57.078Z,25.44
2018-08-28T10:18:56.767Z,25.46
2018-08-28T10:19:37.107Z,25.51
2018-08-28T10:20:17.570Z,25.46
2018-08-28T10:20:57.970Z,25.41
2018-08-28T10:21:38.441Z,25.44